Time;durP1;ratioP1;P1;durP2;ratioP2;P2;SDS_P1;SDS_P2;PMS_P1;PMS_P2;Temp;Humidity;BMP_temperature;BMP_pressure;BME280_temperature;BME280_humidity;BME280_pressure;Samples;Min_cycle;Max_cycle;Signal;HPM_P1;HPM_P2
2023/03/07 00:00:31;;;;;;;;;17.50;14.75;;;;;;;;5116322;27;45404;-72
2023/03/07 00:02:56;;;;;;;;;15.75;12.75;;;;;;;;5116116;27;45297;-72
2023/03/07 00:05:21;;;;;;;;;14.00;10.00;;;;;;;;5116255;27;45476;-72
2023/03/07 00:07:47;;;;;;;;;18.00;17.25;;;;;;;;5116456;27;45404;-72
2023/03/07 00:10:12;;;;;;;;;19.00;18.00;;;;;;;;5116220;27;45301;-72
2023/03/07 00:12:37;;;;;;;;;24.00;17.00;;;;;;;;5104087;27;45847;-72
2023/03/07 00:15:03;;;;;;;;;17.25;15.00;;;;;;;;5095566;27;45333;-72
2023/03/07 00:17:28;;;;;;;;;22.50;18.50;;;;;;;;5095382;27;45295;-72
2023/03/07 00:19:53;;;;;;;;;19.75;19.50;;;;;;;;5095476;27;45536;-72
2023/03/07 00:22:19;;;;;;;;;18.75;17.50;;;;;;;;5099105;27;45439;-72
2023/03/07 00:24:46;;;;;;;;;17.50;17.50;;;;;;;;5100021;27;45342;-71
2023/03/07 00:27:11;;;;;;;;;17.00;12.75;;;;;;;;5101241;27;45268;-71
2023/03/07 00:29:36;;;;;;;;;19.00;19.00;;;;;;;;5101125;27;45356;-72
2023/03/07 00:32:02;;;;;;;;;15.00;13.75;;;;;;;;5097689;27;46290;-71
2023/03/07 00:34:27;;;;;;;;;15.25;14.00;;;;;;;;5099820;27;45383;-72
2023/03/07 00:36:52;;;;;;;;;23.50;20.00;;;;;;;;5098889;27;45448;-72
2023/03/07 00:39:17;;;;;;;;;18.25;17.00;;;;;;;;5098800;27;45495;-72
2023/03/07 00:41:42;;;;;;;;;24.00;19.50;;;;;;;;5097978;27;46283;-73
2023/03/07 00:44:08;;;;;;;;;21.00;20.25;;;;;;;;5098132;27;45333;-71
2023/03/07 00:46:33;;;;;;;;;16.25;16.25;;;;;;;;5098884;27;45397;-73
2023/03/07 00:48:58;;;;;;;;;19.00;17.75;;;;;;;;5098595;27;45334;-73
2023/03/07 00:51:24;;;;;;;;;17.25;17.25;;;;;;;;5098330;27;45432;-73
2023/03/07 00:53:49;;;;;;;;;21.00;17.00;;;;;;;;5098100;27;45331;-72
2023/03/07 00:56:14;;;;;;;;;17.00;15.75;;;;;;;;5097100;27;45367;-73
2023/03/07 00:58:39;;;;;;;;;20.25;20.25;;;;;;;;5098132;27;45526;-73
2023/03/07 01:01:06;;;;;;;;;25.25;21.50;;;;;;;;5098186;27;45415;-73
2023/03/07 01:03:31;;;;;;;;;20.25;17.25;;;;;;;;5098369;27;45388;-73
2023/03/07 01:05:57;;;;;;;;;20.25;18.50;;;;;;;;5098596;27;45471;-73
2023/03/07 01:08:22;;;;;;;;;22.25;19.75;;;;;;;;5098266;27;45516;-74
2023/03/07 01:10:47;;;;;;;;;25.25;18.50;;;;;;;;5096735;27;46438;-73
2023/03/07 01:13:13;;;;;;;;;13.75;12.75;;;;;;;;5097975;27;45356;-73
2023/03/07 01:15:38;;;;;;;;;16.50;16.50;;;;;;;;5098122;27;45414;-73
2023/03/07 01:18:04;;;;;;;;;15.25;15.00;;;;;;;;5079994;27;45360;-73
2023/03/07 01:20:34;;;;;;;;;20.25;18.50;;;;;;;;5097880;27;45885;-72
2023/03/07 01:22:59;;;;;;;;;22.00;20.00;;;;;;;;5097825;27;45373;-73
2023/03/07 01:25:24;;;;;;;;;18.50;17.75;;;;;;;;5096684;27;45338;-73
2023/03/07 01:27:54;;;;;;;;;21.00;19.50;;;;;;;;5097865;27;45259;-73
2023/03/07 01:30:19;;;;;;;;;17.75;17.75;;;;;;;;5096853;27;46943;-73
2023/03/07 01:32:44;;;;;;;;;18.25;15.25;;;;;;;;5096866;27;45434;-73
2023/03/07 01:35:10;;;;;;;;;25.50;18.00;;;;;;;;5097881;27;45491;-73
2023/03/07 01:37:35;;;;;;;;;22.00;22.00;;;;;;;;5098023;27;45310;-73
2023/03/07 01:40:00;;;;;;;;;23.00;18.25;;;;;;;;5096534;27;47430;-73
2023/03/07 01:42:29;;;;;;;;;22.50;17.50;;;;;;;;5097878;27;45335;-73
2023/03/07 01:45:05;;;;;;;;;20.00;17.50;;;;;;;;5098133;27;45418;-73
2023/03/07 01:47:30;;;;;;;;;20.50;16.00;;;;;;;;5097964;27;45466;-74
2023/03/07 01:49:57;;;;;;;;;24.75;22.00;;;;;;;;5097465;27;45400;-73
2023/03/07 01:52:22;;;;;;;;;26.75;18.50;;;;;;;;5097688;27;45472;-73
2023/03/07 01:54:50;;;;;;;;;20.75;18.50;;;;;;;;5097785;27;45396;-73
2023/03/07 01:57:17;;;;;;;;;16.75;16.50;;;;;;;;5097337;27;45404;-73
2023/03/07 01:59:45;;;;;;;;;16.00;14.25;;;;;;;;5096955;27;46419;-74
2023/03/07 02:02:12;;;;;;;;;16.25;15.25;;;;;;;;5097507;27;45448;-73
2023/03/07 02:04:58;;;;;;;;;24.00;17.50;;;;;;;;5097575;27;45324;-73
2023/03/07 02:07:26;;;;;;;;;16.50;15.25;;;;;;;;5097063;27;45342;-73
2023/03/07 02:09:52;;;;;;;;;18.00;17.50;;;;;;;;5097029;27;47460;-73
2023/03/07 02:12:17;;;;;;;;;13.75;13.75;;;;;;;;5095834;27;45313;-73
2023/03/07 02:14:44;;;;;;;;;21.25;18.25;;;;;;;;5096053;27;45245;-73
2023/03/07 02:17:10;;;;;;;;;22.50;19.00;;;;;;;;5097259;27;45482;-73
2023/03/07 02:19:41;;;;;;;;;18.25;16.00;;;;;;;;5096792;27;45585;-74
2023/03/07 02:22:16;;;;;;;;;18.25;16.25;;;;;;;;5097070;27;45400;-73
2023/03/07 02:24:57;;;;;;;;;18.75;15.50;;;;;;;;5096770;27;45331;-74
2023/03/07 02:27:24;;;;;;;;;20.75;17.25;;;;;;;;5097219;27;45387;-73
2023/03/07 02:29:50;;;;;;;;;19.00;16.50;;;;;;;;5095663;27;47373;-74
2023/03/07 02:32:15;;;;;;;;;19.00;17.00;;;;;;;;5096818;27;45385;-73
2023/03/07 02:34:40;;;;;;;;;17.75;16.50;;;;;;;;5097311;27;45359;-74
2023/03/07 02:37:08;;;;;;;;;19.75;17.00;;;;;;;;5097060;27;45430;-73
2023/03/07 02:39:33;;;;;;;;;22.00;17.00;;;;;;;;5096884;27;46026;-74
2023/03/07 02:42:01;;;;;;;;;21.00;15.50;;;;;;;;5096995;27;45284;-73
2023/03/07 02:44:26;;;;;;;;;16.50;15.00;;;;;;;;5096033;27;45260;-73
2023/03/07 02:46:51;;;;;;;;;17.25;16.00;;;;;;;;5096312;27;45369;-72
2023/03/07 02:49:17;;;;;;;;;19.00;17.25;;;;;;;;5096647;27;45588;-73
2023/03/07 02:51:42;;;;;;;;;20.25;15.25;;;;;;;;5096346;27;45430;-73
2023/03/07 02:54:07;;;;;;;;;15.50;15.00;;;;;;;;5096683;27;45408;-73
2023/03/07 02:56:33;;;;;;;;;21.00;21.00;;;;;;;;5096546;27;45356;-73
2023/03/07 02:58:58;;;;;;;;;19.00;17.25;;;;;;;;5096104;27;45362;-73
2023/03/07 03:01:23;;;;;;;;;22.75;20.75;;;;;;;;5095846;27;45319;-73
2023/03/07 03:03:48;;;;;;;;;19.50;17.25;;;;;;;;5096253;27;45383;-73
2023/03/07 03:06:14;;;;;;;;;19.75;19.75;;;;;;;;5096139;27;45340;-73
2023/03/07 03:08:39;;;;;;;;;16.75;16.00;;;;;;;;5096297;27;45474;-73
2023/03/07 03:11:04;;;;;;;;;19.25;17.00;;;;;;;;5096409;27;45406;-73
2023/03/07 03:13:29;;;;;;;;;21.50;14.50;;;;;;;;5096072;27;45870;-73
2023/03/07 03:15:55;;;;;;;;;20.00;20.00;;;;;;;;5096203;27;45381;-73
2023/03/07 03:18:21;;;;;;;;;17.25;16.75;;;;;;;;5094392;27;46058;-73
2023/03/07 03:20:46;;;;;;;;;19.25;15.25;;;;;;;;5094462;27;45402;-73
2023/03/07 03:23:11;;;;;;;;;20.50;18.50;;;;;;;;5096288;27;45384;-72
2023/03/07 03:25:36;;;;;;;;;22.00;19.50;;;;;;;;5094867;27;45407;-72
2023/03/07 03:28:02;;;;;;;;;10.75;10.75;;;;;;;;5096048;27;45904;-73
2023/03/07 03:30:31;;;;;;;;;18.75;15.50;;;;;;;;5096023;27;45368;-73
2023/03/07 03:32:56;;;;;;;;;19.75;18.50;;;;;;;;5096049;27;45333;-73
2023/03/07 03:35:21;;;;;;;;;21.25;18.00;;;;;;;;5095401;27;45405;-73
2023/03/07 03:37:47;;;;;;;;;22.50;18.50;;;;;;;;5095643;27;46056;-72
2023/03/07 03:40:16;;;;;;;;;17.00;17.00;;;;;;;;5096195;27;45367;-73
2023/03/07 03:42:42;;;;;;;;;21.50;19.00;;;;;;;;5096238;27;45339;-73
2023/03/07 03:45:08;;;;;;;;;19.75;15.75;;;;;;;;5095904;27;45312;-73
2023/03/07 03:47:34;;;;;;;;;20.00;16.25;;;;;;;;5096214;27;46569;-73
2023/03/07 03:49:59;;;;;;;;;14.50;14.50;;;;;;;;5096810;27;45349;-73
2023/03/07 03:52:24;;;;;;;;;18.00;16.00;;;;;;;;5097571;27;45330;-73
2023/03/07 03:54:49;;;;;;;;;20.50;17.75;;;;;;;;5097635;27;45767;-73
2023/03/07 03:57:16;;;;;;;;;17.00;16.25;;;;;;;;5100630;27;45474;-73
2023/03/07 03:59:42;;;;;;;;;20.50;16.75;;;;;;;;5099514;27;45607;-73
2023/03/07 04:02:07;;;;;;;;;18.75;17.50;;;;;;;;5099667;27;45654;-73
2023/03/07 04:04:32;;;;;;;;;15.50;13.00;;;;;;;;5099074;27;45563;-73
2023/03/07 04:06:57;;;;;;;;;20.75;17.75;;;;;;;;5099192;27;46198;-73
2023/03/07 04:09:23;;;;;;;;;17.50;16.25;;;;;;;;5099222;27;45348;-73
2023/03/07 04:11:48;;;;;;;;;18.00;17.00;;;;;;;;5099265;27;45411;-73
2023/03/07 04:14:13;;;;;;;;;19.75;17.75;;;;;;;;5099204;27;45392;-73
2023/03/07 04:16:38;;;;;;;;;18.75;17.00;;;;;;;;5098818;27;45463;-73
2023/03/07 04:19:03;;;;;;;;;15.75;15.25;;;;;;;;5097341;27;46075;-73
2023/03/07 04:21:29;;;;;;;;;18.50;16.50;;;;;;;;5099200;27;45456;-73
2023/03/07 04:23:56;;;;;;;;;17.00;17.00;;;;;;;;5097888;27;45461;-73
2023/03/07 04:26:21;;;;;;;;;21.50;16.75;;;;;;;;5098696;27;45613;-72
2023/03/07 04:28:48;;;;;;;;;17.50;14.00;;;;;;;;5098947;27;45392;-73
2023/03/07 04:31:15;;;;;;;;;15.75;15.75;;;;;;;;5099165;27;45480;-73
2023/03/07 04:33:40;;;;;;;;;21.00;20.00;;;;;;;;5098683;27;45247;-72
2023/03/07 04:36:06;;;;;;;;;21.00;16.75;;;;;;;;5097267;27;47383;-73
2023/03/07 04:38:31;;;;;;;;;16.75;16.00;;;;;;;;5097840;27;45380;-73
2023/03/07 04:40:56;;;;;;;;;15.25;15.00;;;;;;;;5098855;27;45294;-73
2023/03/07 04:43:21;;;;;;;;;17.00;16.00;;;;;;;;5098997;27;45281;-73
2023/03/07 04:45:47;;;;;;;;;18.00;13.00;;;;;;;;5098506;27;45386;-73
2023/03/07 04:48:12;;;;;;;;;15.00;12.00;;;;;;;;5097179;27;45434;-72
2023/03/07 04:50:37;;;;;;;;;14.75;12.75;;;;;;;;5098699;27;45356;-72
2023/03/07 04:53:02;;;;;;;;;13.00;12.00;;;;;;;;5097691;27;45290;-73
2023/03/07 04:55:27;;;;;;;;;16.50;15.25;;;;;;;;5096887;27;48349;-72
2023/03/07 04:57:53;;;;;;;;;16.75;16.25;;;;;;;;5098453;27;45424;-73
2023/03/07 05:00:18;;;;;;;;;17.00;15.75;;;;;;;;5098705;27;45380;-73
2023/03/07 05:02:45;;;;;;;;;17.00;15.50;;;;;;;;5098100;27;45350;-72
2023/03/07 05:05:11;;;;;;;;;19.50;15.25;;;;;;;;5098390;27;46683;-73
2023/03/07 05:07:36;;;;;;;;;17.50;15.75;;;;;;;;5097168;27;45389;-73
2023/03/07 05:10:01;;;;;;;;;19.75;14.50;;;;;;;;5098888;27;45742;-72
2023/03/07 05:12:26;;;;;;;;;14.25;14.00;;;;;;;;5098870;27;45308;-73
2023/03/07 05:14:52;;;;;;;;;15.00;12.75;;;;;;;;5098526;27;45463;-73
2023/03/07 05:17:18;;;;;;;;;17.50;14.50;;;;;;;;5097118;27;45343;-73
2023/03/07 05:19:43;;;;;;;;;16.25;16.25;;;;;;;;5098385;27;45339;-73
2023/03/07 05:22:08;;;;;;;;;17.25;16.50;;;;;;;;5098415;27;45300;-73
2023/03/07 05:24:33;;;;;;;;;17.75;16.25;;;;;;;;5097853;27;45400;-73
2023/03/07 05:26:59;;;;;;;;;21.25;19.25;;;;;;;;5098246;27;45263;-73
2023/03/07 05:29:24;;;;;;;;;18.25;16.50;;;;;;;;5098220;27;45314;-73
2023/03/07 05:31:49;;;;;;;;;16.00;12.25;;;;;;;;5097807;27;45288;-73
2023/03/07 05:34:14;;;;;;;;;17.25;16.00;;;;;;;;5097986;27;45404;-73
2023/03/07 05:36:40;;;;;;;;;14.00;14.00;;;;;;;;5097827;27;45316;-73
2023/03/07 05:39:05;;;;;;;;;18.00;16.75;;;;;;;;5097868;27;45283;-72
2023/03/07 05:41:30;;;;;;;;;20.50;17.25;;;;;;;;5097980;27;45298;-73
2023/03/07 05:43:57;;;;;;;;;25.50;23.75;;;;;;;;5097670;27;45497;-73
2023/03/07 05:46:22;;;;;;;;;17.00;15.00;;;;;;;;5095773;27;45314;-73
2023/03/07 05:48:47;;;;;;;;;19.75;18.25;;;;;;;;5097870;27;45353;-73
2023/03/07 05:51:12;;;;;;;;;19.00;16.00;;;;;;;;5097969;27;45233;-73
2023/03/07 05:53:38;;;;;;;;;21.50;21.00;;;;;;;;5098083;27;45328;-72
2023/03/07 05:56:03;;;;;;;;;18.25;18.00;;;;;;;;5097687;27;45396;-72
2023/03/07 05:58:28;;;;;;;;;17.00;15.50;;;;;;;;5097664;27;45395;-72
2023/03/07 06:00:54;;;;;;;;;17.00;15.25;;;;;;;;5097585;27;45372;-73
2023/03/07 06:03:19;;;;;;;;;15.25;15.00;;;;;;;;5097380;27;45366;-72
2023/03/07 06:05:47;;;;;;;;;18.25;17.25;;;;;;;;5097516;27;45477;-73
2023/03/07 06:08:12;;;;;;;;;16.75;14.75;;;;;;;;5097720;27;45371;-73
2023/03/07 06:10:38;;;;;;;;;17.25;15.25;;;;;;;;5097203;27;45363;-73
2023/03/07 06:13:04;;;;;;;;;19.00;17.50;;;;;;;;5096723;27;46203;-73
2023/03/07 06:15:29;;;;;;;;;13.50;13.00;;;;;;;;5095712;27;46112;-73
2023/03/07 06:17:54;;;;;;;;;16.25;16.25;;;;;;;;5096385;27;45420;-73
2023/03/07 06:20:19;;;;;;;;;21.00;19.75;;;;;;;;5096797;27;45441;-74
2023/03/07 06:22:45;;;;;;;;;19.75;16.00;;;;;;;;5097052;27;46910;-73
2023/03/07 06:25:10;;;;;;;;;16.50;15.50;;;;;;;;5096298;27;45367;-73
2023/03/07 06:27:36;;;;;;;;;17.00;16.75;;;;;;;;5097152;27;45286;-74
2023/03/07 06:30:02;;;;;;;;;17.25;17.25;;;;;;;;5097175;27;45508;-73
2023/03/07 06:32:27;;;;;;;;;25.75;18.50;;;;;;;;5096643;27;46111;-74
2023/03/07 06:34:52;;;;;;;;;19.00;16.75;;;;;;;;5096865;27;45334;-72
2023/03/07 06:37:17;;;;;;;;;17.00;14.75;;;;;;;;5094573;27;45450;-73
2023/03/07 06:39:42;;;;;;;;;18.75;16.50;;;;;;;;5096296;27;45334;-73
2023/03/07 06:42:08;;;;;;;;;19.25;15.00;;;;;;;;5096699;27;45627;-72
2023/03/07 06:44:33;;;;;;;;;18.75;15.25;;;;;;;;5095823;27;45467;-72
2023/03/07 06:46:58;;;;;;;;;18.75;16.00;;;;;;;;5096156;27;45380;-73
2023/03/07 06:49:23;;;;;;;;;16.75;15.50;;;;;;;;5096721;27;45329;-72
2023/03/07 06:51:49;;;;;;;;;20.00;17.50;;;;;;;;5095219;27;47285;-72
2023/03/07 06:54:14;;;;;;;;;21.25;17.75;;;;;;;;5096189;27;45475;-72
2023/03/07 06:56:39;;;;;;;;;17.75;16.50;;;;;;;;5095141;27;45357;-73
2023/03/07 06:59:04;;;;;;;;;15.00;14.75;;;;;;;;5096442;27;45407;-72
2023/03/07 07:01:30;;;;;;;;;12.25;10.00;;;;;;;;5096609;27;47017;-72
2023/03/07 07:03:55;;;;;;;;;19.00;17.00;;;;;;;;5096494;27;45356;-73
2023/03/07 07:06:21;;;;;;;;;19.75;14.75;;;;;;;;5096620;27;45404;-73
2023/03/07 07:08:46;;;;;;;;;14.00;14.00;;;;;;;;5097040;27;45440;-72
2023/03/07 07:11:11;;;;;;;;;15.00;14.00;;;;;;;;5096639;27;45309;-73
2023/03/07 07:13:36;;;;;;;;;18.00;15.75;;;;;;;;5096434;27;45344;-72
2023/03/07 07:16:05;;;;;;;;;14.50;12.50;;;;;;;;5095019;27;45361;-73
2023/03/07 07:18:31;;;;;;;;;17.75;17.25;;;;;;;;5096672;27;45441;-72
2023/03/07 07:20:56;;;;;;;;;16.75;15.25;;;;;;;;5095910;27;45730;-72
2023/03/07 07:23:22;;;;;;;;;20.00;18.00;;;;;;;;5096139;27;45215;-72
2023/03/07 07:25:47;;;;;;;;;17.75;14.00;;;;;;;;5096281;27;45365;-73
2023/03/07 07:28:12;;;;;;;;;15.00;13.00;;;;;;;;5094621;27;45434;-72
2023/03/07 07:30:37;;;;;;;;;20.25;15.25;;;;;;;;5093379;27;46282;-73
2023/03/07 07:33:03;;;;;;;;;14.50;14.50;;;;;;;;5096030;27;45452;-73
2023/03/07 07:35:28;;;;;;;;;17.75;16.00;;;;;;;;5095710;27;45448;-73
2023/03/07 07:37:53;;;;;;;;;17.00;14.00;;;;;;;;5092657;27;45462;-73
2023/03/07 07:40:18;;;;;;;;;16.00;14.00;;;;;;;;5095208;27;45355;-73
2023/03/07 07:42:47;;;;;;;;;18.50;15.00;;;;;;;;5095455;27;45712;-73
2023/03/07 07:45:12;;;;;;;;;11.00;10.00;;;;;;;;5095282;27;45451;-73
2023/03/07 07:47:38;;;;;;;;;17.00;14.75;;;;;;;;5094851;27;45454;-73
2023/03/07 07:50:03;;;;;;;;;13.00;12.50;;;;;;;;5094230;27;45851;-73
2023/03/07 07:52:28;;;;;;;;;12.25;12.25;;;;;;;;5094540;27;45319;-73
2023/03/07 07:54:54;;;;;;;;;11.00;10.25;;;;;;;;5094781;27;45463;-73
2023/03/07 07:57:19;;;;;;;;;16.25;12.00;;;;;;;;5094108;27;45468;-73
2023/03/07 07:59:44;;;;;;;;;11.00;9.75;;;;;;;;5094484;27;45436;-73
2023/03/07 08:02:12;;;;;;;;;14.75;13.00;;;;;;;;5095078;27;45475;-73
2023/03/07 08:04:37;;;;;;;;;17.00;16.00;;;;;;;;5095848;27;45315;-73
2023/03/07 08:07:02;;;;;;;;;15.25;14.50;;;;;;;;5094253;27;45267;-73
2023/03/07 08:09:28;;;;;;;;;19.50;15.50;;;;;;;;5095365;27;46041;-73
2023/03/07 08:11:53;;;;;;;;;17.50;13.75;;;;;;;;5093769;27;45411;-73
2023/03/07 08:14:18;;;;;;;;;17.75;16.50;;;;;;;;5094112;27;45538;-73
2023/03/07 08:16:43;;;;;;;;;15.25;13.75;;;;;;;;5094093;27;45522;-74
2023/03/07 08:19:09;;;;;;;;;18.25;15.50;;;;;;;;5094890;27;45580;-72
2023/03/07 08:21:34;;;;;;;;;14.25;13.50;;;;;;;;5093840;27;45279;-73
2023/03/07 08:24:00;;;;;;;;;16.50;15.00;;;;;;;;5094821;27;45411;-72
2023/03/07 08:26:25;;;;;;;;;10.75;10.00;;;;;;;;5093467;27;45586;-73
2023/03/07 08:28:50;;;;;;;;;10.00;9.00;;;;;;;;5095555;27;46093;-73
2023/03/07 08:31:22;;;;;;;;;15.50;14.00;;;;;;;;5095151;27;45333;-73
2023/03/07 08:33:48;;;;;;;;;15.00;13.25;;;;;;;;5095263;27;45492;-73
2023/03/07 08:36:13;;;;;;;;;17.25;14.25;;;;;;;;5095397;27;45318;-73
2023/03/07 08:38:39;;;;;;;;;13.50;13.50;;;;;;;;5094931;27;45361;-72
2023/03/07 08:41:05;;;;;;;;;15.25;14.00;;;;;;;;5093467;27;45616;-73
2023/03/07 08:43:32;;;;;;;;;12.25;12.25;;;;;;;;5098965;27;45376;-73
2023/03/07 08:45:57;;;;;;;;;11.25;10.25;;;;;;;;5098430;27;45344;-72
2023/03/07 08:48:23;;;;;;;;;13.25;11.75;;;;;;;;5098103;27;46146;-73
2023/03/07 08:50:48;;;;;;;;;16.50;14.75;;;;;;;;5097209;27;46164;-73
2023/03/07 08:53:14;;;;;;;;;13.75;13.75;;;;;;;;5098354;27;45344;-73
2023/03/07 08:55:39;;;;;;;;;18.25;14.00;;;;;;;;5098306;27;45439;-73
2023/03/07 08:58:04;;;;;;;;;14.50;13.25;;;;;;;;5098187;27;45396;-73
2023/03/07 09:00:30;;;;;;;;;14.50;14.00;;;;;;;;5098259;27;45385;-73
2023/03/07 09:02:57;;;;;;;;;11.50;11.50;;;;;;;;5096451;27;45404;-72
2023/03/07 09:05:22;;;;;;;;;9.50;9.50;;;;;;;;5084009;27;45912;-72
2023/03/07 09:07:47;;;;;;;;;17.25;12.50;;;;;;;;5093306;27;48114;-72
2023/03/07 09:10:13;;;;;;;;;10.00;10.00;;;;;;;;5093520;27;45438;-74
2023/03/07 09:12:38;;;;;;;;;14.50;14.50;;;;;;;;5098766;27;45414;-72
2023/03/07 09:15:03;;;;;;;;;15.00;12.25;;;;;;;;5095593;27;45405;-72
2023/03/07 09:17:29;;;;;;;;;10.25;9.00;;;;;;;;5094301;27;46030;-72
2023/03/07 09:19:55;;;;;;;;;16.50;12.75;;;;;;;;5094023;27;45440;-72
2023/03/07 09:22:20;;;;;;;;;10.00;10.00;;;;;;;;5095448;27;45441;-73
2023/03/07 09:24:45;;;;;;;;;11.75;11.00;;;;;;;;5094909;27;45411;-74
2023/03/07 09:27:10;;;;;;;;;11.50;11.50;;;;;;;;5097462;27;45432;-74
2023/03/07 09:29:36;;;;;;;;;11.00;10.00;;;;;;;;5098074;27;45380;-74
2023/03/07 09:32:02;;;;;;;;;14.00;12.00;;;;;;;;5098192;27;45375;-72
2023/03/07 09:34:27;;;;;;;;;16.75;11.25;;;;;;;;5097024;27;45327;-73
2023/03/07 09:36:52;;;;;;;;;9.50;8.50;;;;;;;;5097588;27;46157;-74
2023/03/07 09:39:18;;;;;;;;;17.00;12.75;;;;;;;;5097215;27;45515;-73
2023/03/07 09:41:55;;;;;;;;;12.00;12.00;;;;;;;;5097815;27;45346;-74
2023/03/07 09:44:27;;;;;;;;;12.25;12.25;;;;;;;;5097170;27;45388;-72
2023/03/07 09:47:09;;;;;;;;;10.00;10.00;;;;;;;;5097189;27;45386;-72
2023/03/07 09:49:38;;;;;;;;;14.50;10.75;;;;;;;;5096576;27;45494;-72
2023/03/07 09:52:08;;;;;;;;;16.75;12.75;;;;;;;;5097548;27;45330;-72
2023/03/07 09:54:53;;;;;;;;;15.00;13.00;;;;;;;;5095678;27;45623;-72
2023/03/07 09:57:24;;;;;;;;;15.25;13.75;;;;;;;;5089433;27;45365;-74
2023/03/07 09:59:51;;;;;;;;;14.00;14.00;;;;;;;;5097040;27;45375;-73
2023/03/07 10:02:35;;;;;;;;;12.75;11.25;;;;;;;;5097055;27;45487;-72
2023/03/07 10:05:12;;;;;;;;;12.25;11.00;;;;;;;;5096960;27;45390;-72
2023/03/07 10:07:38;;;;;;;;;15.00;13.50;;;;;;;;5096337;27;45870;-72
2023/03/07 10:10:05;;;;;;;;;16.25;14.00;;;;;;;;5097530;27;45375;-72
2023/03/07 10:12:49;;;;;;;;;18.25;18.25;;;;;;;;5097077;27;45962;-73
2023/03/07 10:15:23;;;;;;;;;11.25;9.75;;;;;;;;5097171;27;45405;-72
2023/03/07 10:17:57;;;;;;;;;14.00;13.75;;;;;;;;5095627;27;46742;-73
2023/03/07 10:20:28;;;;;;;;;13.25;10.25;;;;;;;;5097040;27;45477;-72
2023/03/07 10:22:59;;;;;;;;;13.00;13.00;;;;;;;;5096563;27;45431;-73
2023/03/07 10:25:49;;;;;;;;;14.25;12.00;;;;;;;;5096671;27;45309;-73
2023/03/07 10:28:31;;;;;;;;;13.75;12.50;;;;;;;;5096020;27;47181;-73
2023/03/07 10:30:58;;;;;;;;;18.75;15.00;;;;;;;;5097179;27;45432;-73
2023/03/07 10:33:24;;;;;;;;;12.00;11.75;;;;;;;;5097402;27;45293;-72
2023/03/07 10:36:10;;;;;;;;;15.25;12.75;;;;;;;;5097197;27;45285;-73
2023/03/07 10:38:35;;;;;;;;;12.75;11.75;;;;;;;;5093396;27;45419;-73
2023/03/07 10:41:12;;;;;;;;;11.75;11.75;;;;;;;;5098626;27;45276;-73
2023/03/07 10:43:38;;;;;;;;;12.50;11.00;;;;;;;;5098314;27;45453;-73
2023/03/07 10:46:14;;;;;;;;;15.75;13.75;;;;;;;;5097307;27;45516;-74
2023/03/07 10:48:43;;;;;;;;;13.50;10.50;;;;;;;;5096465;27;45650;-73
2023/03/07 10:51:24;;;;;;;;;13.00;11.75;;;;;;;;5095814;27;45459;-73
2023/03/07 10:53:51;;;;;;;;;13.25;10.50;;;;;;;;5095696;27;45396;-74
2023/03/07 10:56:17;;;;;;;;;12.00;9.75;;;;;;;;5095383;27;45427;-73
2023/03/07 10:58:58;;;;;;;;;12.25;11.00;;;;;;;;5096099;27;46304;-74
2023/03/07 11:01:26;;;;;;;;;11.75;11.00;;;;;;;;5095548;27;45423;-74
2023/03/07 11:03:51;;;;;;;;;12.25;10.00;;;;;;;;5096270;27;45503;-74
2023/03/07 11:06:35;;;;;;;;;12.75;11.75;;;;;;;;5096271;27;45523;-74
2023/03/07 11:09:07;;;;;;;;;15.00;13.75;;;;;;;;5094552;27;47934;-73
2023/03/07 11:11:33;;;;;;;;;14.25;12.50;;;;;;;;5094460;27;45532;-74
2023/03/07 11:14:11;;;;;;;;;12.00;8.75;;;;;;;;5094576;27;45324;-73
2023/03/07 11:16:40;;;;;;;;;15.75;15.75;;;;;;;;5087668;27;45986;-74
2023/03/07 11:19:22;;;;;;;;;11.75;11.25;;;;;;;;5090596;27;48699;-74
2023/03/07 11:21:52;;;;;;;;;8.00;8.00;;;;;;;;5100724;27;45362;-73
2023/03/07 11:24:24;;;;;;;;;9.25;9.25;;;;;;;;5112210;27;45653;-74
2023/03/07 11:26:52;;;;;;;;;7.00;7.00;;;;;;;;5108926;27;45433;-73
2023/03/07 11:29:17;;;;;;;;;11.50;8.50;;;;;;;;5105507;27;45532;-72
2023/03/07 11:31:42;;;;;;;;;12.00;10.25;;;;;;;;5098569;27;45385;-73
2023/03/07 11:34:27;;;;;;;;;6.75;6.75;;;;;;;;5111166;27;45483;-72
2023/03/07 11:37:00;;;;;;;;;13.75;12.75;;;;;;;;5098934;27;45361;-72
2023/03/07 11:39:28;;;;;;;;;14.25;11.25;;;;;;;;5100541;27;46071;-72
2023/03/07 11:42:02;;;;;;;;;7.50;5.00;;;;;;;;5110967;27;45427;-72
2023/03/07 11:44:46;;;;;;;;;7.00;6.00;;;;;;;;5081516;27;45835;-72
2023/03/07 11:47:14;;;;;;;;;12.25;9.50;;;;;;;;5106306;27;45286;-72
2023/03/07 11:49:39;;;;;;;;;5.25;5.00;;;;;;;;5108470;27;46304;-72
2023/03/07 11:52:04;;;;;;;;;14.25;6.75;;;;;;;;5096907;27;45850;-73
2023/03/07 11:54:48;;;;;;;;;10.50;8.75;;;;;;;;5095390;27;45266;-72
2023/03/07 11:57:33;;;;;;;;;11.75;6.00;;;;;;;;5095410;27;45559;-72
2023/03/07 12:00:18;;;;;;;;;13.75;12.50;;;;;;;;5094217;27;47211;-72
2023/03/07 12:03:02;;;;;;;;;11.50;11.50;;;;;;;;5090495;27;45470;-72
2023/03/07 12:05:35;;;;;;;;;9.75;7.75;;;;;;;;5095931;27;45478;-72
2023/03/07 12:08:07;;;;;;;;;7.25;6.75;;;;;;;;5093976;27;45516;-72
2023/03/07 12:10:35;;;;;;;;;9.00;7.25;;;;;;;;5095347;27;46533;-72
2023/03/07 12:13:15;;;;;;;;;11.25;11.25;;;;;;;;5095554;27;45372;-72
2023/03/07 12:15:48;;;;;;;;;23.00;21.50;;;;;;;;5095868;27;45291;-71
2023/03/07 12:18:32;;;;;;;;;8.50;8.50;;;;;;;;5097555;27;45338;-72
2023/03/07 12:21:16;;;;;;;;;9.00;8.00;;;;;;;;5099464;27;45272;-72
2023/03/07 12:23:45;;;;;;;;;11.25;8.25;;;;;;;;5098785;27;45292;-71
2023/03/07 12:26:36;;;;;;;;;12.75;12.25;;;;;;;;5099334;27;45359;-72
2023/03/07 12:29:09;;;;;;;;;10.00;8.50;;;;;;;;5098260;27;45471;-72
2023/03/07 12:31:39;;;;;;;;;10.50;8.50;;;;;;;;5098987;27;46307;-72
2023/03/07 12:34:10;;;;;;;;;12.25;10.25;;;;;;;;5099242;27;45282;-71
2023/03/07 12:36:52;;;;;;;;;22.50;18.75;;;;;;;;5098490;27;45399;-72
2023/03/07 12:39:18;;;;;;;;;12.00;12.00;;;;;;;;5099172;27;45561;-72
2023/03/07 12:41:43;;;;;;;;;12.50;11.50;;;;;;;;5098817;27;45694;-73
2023/03/07 12:44:16;;;;;;;;;13.00;12.00;;;;;;;;5098725;27;45351;-73
2023/03/07 12:47:02;;;;;;;;;10.75;9.75;;;;;;;;5098672;27;45308;-73
2023/03/07 12:49:40;;;;;;;;;8.75;8.50;;;;;;;;5094614;27;45564;-73
2023/03/07 12:52:10;;;;;;;;;6.50;6.50;;;;;;;;5099844;27;47301;-72
2023/03/07 12:54:37;;;;;;;;;10.25;10.25;;;;;;;;5098512;27;45357;-73
2023/03/07 12:57:02;;;;;;;;;4.50;4.25;;;;;;;;5099387;27;45380;-72
2023/03/07 12:59:28;;;;;;;;;9.50;8.50;;;;;;;;5099200;27;45452;-73
2023/03/07 13:02:10;;;;;;;;;8.25;8.25;;;;;;;;5098818;27;46355;-72
2023/03/07 13:04:37;;;;;;;;;7.00;6.00;;;;;;;;5098570;27;45310;-72
2023/03/07 13:07:14;;;;;;;;;5.00;5.00;;;;;;;;5098616;27;45332;-72
2023/03/07 13:09:41;;;;;;;;;5.00;5.00;;;;;;;;5098592;27;45338;-73
2023/03/07 13:12:06;;;;;;;;;8.25;7.25;;;;;;;;5098526;27;45419;-73
2023/03/07 13:14:51;;;;;;;;;8.75;6.00;;;;;;;;5096802;27;45329;-72
2023/03/07 13:17:25;;;;;;;;;3.25;3.25;;;;;;;;5098398;27;45309;-73
2023/03/07 13:19:54;;;;;;;;;7.25;5.00;;;;;;;;5098939;27;45426;-72
2023/03/07 13:22:19;;;;;;;;;10.25;7.25;;;;;;;;5097879;27;46389;-73
2023/03/07 13:24:46;;;;;;;;;8.00;7.00;;;;;;;;5097886;27;45526;-72
2023/03/07 13:27:23;;;;;;;;;7.00;5.50;;;;;;;;5098728;27;45352;-72
2023/03/07 13:30:02;;;;;;;;;5.75;5.25;;;;;;;;5097735;27;45180;-72
2023/03/07 13:32:46;;;;;;;;;3.00;3.00;;;;;;;;5096520;27;48278;-70
2023/03/07 13:35:12;;;;;;;;;10.25;8.00;;;;;;;;5096542;27;45440;-71
2023/03/07 13:37:50;;;;;;;;;12.75;11.50;;;;;;;;5087017;27;45372;-72
2023/03/07 13:40:24;;;;;;;;;11.50;8.50;;;;;;;;5091264;27;45413;-72
2023/03/07 13:42:49;;;;;;;;;13.00;12.75;;;;;;;;5086741;27;46292;-69
2023/03/07 13:45:40;;;;;;;;;10.50;9.75;;;;;;;;5079588;27;45548;-71
2023/03/07 13:48:09;;;;;;;;;8.50;8.00;;;;;;;;5086688;27;45292;-70
2023/03/07 13:50:34;;;;;;;;;6.75;6.75;;;;;;;;5081812;27;45294;-71
2023/03/07 13:53:18;;;;;;;;;7.75;7.00;;;;;;;;5094982;27;46295;-72
2023/03/07 13:55:45;;;;;;;;;7.75;7.00;;;;;;;;5091313;27;45496;-73
2023/03/07 13:58:27;;;;;;;;;5.75;4.00;;;;;;;;5095021;27;45362;-71
2023/03/07 14:01:13;;;;;;;;;10.00;10.00;;;;;;;;5098057;27;45289;-71
2023/03/07 14:03:48;;;;;;;;;12.00;10.00;;;;;;;;5096890;27;46192;-71
2023/03/07 14:06:15;;;;;;;;;13.50;6.00;;;;;;;;5096267;27;45401;-71
2023/03/07 14:08:41;;;;;;;;;10.00;9.00;;;;;;;;5090086;27;45381;-71
2023/03/07 14:11:13;;;;;;;;;6.75;6.75;;;;;;;;5088977;27;45419;-70
2023/03/07 14:14:01;;;;;;;;;6.25;6.25;;;;;;;;5079744;27;46214;-72
2023/03/07 14:16:35;;;;;;;;;9.00;7.25;;;;;;;;5093300;27;45432;-72
2023/03/07 14:19:16;;;;;;;;;9.00;5.75;;;;;;;;5093505;27;45350;-71
2023/03/07 14:21:47;;;;;;;;;11.00;9.50;;;;;;;;5090697;27;45339;-72
2023/03/07 14:24:30;;;;;;;;;10.00;8.75;;;;;;;;5097857;27;46278;-72
2023/03/07 14:27:02;;;;;;;;;13.75;13.00;;;;;;;;5097669;27;45378;-72